createdAt,value
2018-07-14T00:01:54.171Z,14.88
2018-07-14T00:05:00.452Z,14.82
2018-07-14T00:08:06.266Z,14.81
2018-07-14T00:11:12.095Z,14.79
2018-07-14T00:14:18.292Z,14.73
2018-07-14T00:17:24.350Z,14.71
2018-07-14T00:20:29.235Z,14.70
2018-07-14T00:23:35.359Z,14.65
2018-07-14T00:26:41.219Z,14.64
2018-07-14T00:29:46.398Z,14.54
2018-07-14T00:32:52.533Z,14.53
2018-07-14T00:35:57.992Z,14.51
2018-07-14T00:39:04.558Z,14.50
2018-07-14T00:42:10.361Z,14.45
2018-07-14T00:45:15.846Z,14.43
2018-07-14T00:48:22.850Z,14.42
2018-07-14T00:51:28.806Z,14.37
2018-07-14T00:54:34.693Z,14.37
2018-07-14T00:57:41.753Z,14.35
2018-07-14T01:00:47.723Z,14.31
2018-07-14T01:03:53.285Z,14.22
2018-07-14T01:06:58.213Z,14.20
2018-07-14T01:10:03.396Z,14.20
2018-07-14T01:13:10.194Z,14.17
2018-07-14T01:16:15.989Z,14.15
2018-07-14T01:19:21.712Z,14.08
2018-07-14T01:22:27.859Z,14.08
2018-07-14T01:25:33.591Z,14.07
2018-07-14T01:28:38.791Z,14.06
2018-07-14T01:31:43.686Z,14.01
2018-07-14T01:34:49.171Z,14.00
2018-07-14T01:37:55.140Z,13.96
2018-07-14T01:41:01.136Z,13.94
2018-07-14T01:44:06.755Z,13.90
2018-07-14T01:47:13.271Z,13.87
2018-07-14T01:50:19.075Z,13.82
2018-07-14T01:53:25.084Z,13.81
2018-07-14T01:56:30.347Z,13.77
2018-07-14T01:59:36.459Z,13.77
2018-07-14T02:02:42.175Z,13.76
2018-07-14T02:05:47.344Z,13.73
2018-07-14T02:08:53.206Z,13.68
2018-07-14T02:11:58.415Z,13.68
2018-07-14T02:15:03.900Z,13.69
2018-07-14T02:18:09.392Z,13.61
2018-07-14T02:21:14.675Z,13.60
2018-07-14T02:24:20.646Z,13.59
2018-07-14T02:27:26.701Z,13.52
2018-07-14T02:30:32.571Z,13.52
2018-07-14T02:33:38.676Z,13.49
2018-07-14T02:36:45.167Z,13.45
2018-07-14T02:39:50.326Z,13.44
2018-07-14T02:42:56.396Z,13.47
2018-07-14T02:46:02.483Z,13.43
2018-07-14T02:49:08.951Z,13.46
2018-07-14T02:52:14.868Z,13.45
2018-07-14T02:55:20.671Z,13.44
2018-07-14T02:58:26.979Z,13.45
2018-07-14T03:01:33.687Z,13.43
2018-07-14T03:04:39.462Z,13.44
2018-07-14T03:07:44.635Z,13.44
2018-07-14T03:10:51.760Z,13.42
2018-07-14T03:13:58.749Z,13.46
2018-07-14T03:17:04.491Z,13.44
2018-07-14T03:20:10.875Z,13.45
2018-07-14T03:23:16.555Z,13.42
2018-07-14T03:26:22.144Z,13.44
2018-07-14T03:29:27.315Z,13.41
2018-07-14T03:32:33.363Z,13.43
2018-07-14T03:35:38.271Z,13.42
2018-07-14T03:38:43.442Z,13.44
2018-07-14T03:41:50.992Z,13.46
2018-07-14T03:44:57.703Z,13.47
2018-07-14T03:48:04.652Z,13.50
2018-07-14T03:51:10.619Z,13.53
2018-07-14T03:54:16.492Z,13.54
2018-07-14T03:57:23.380Z,13.55
2018-07-14T04:00:30.359Z,13.56
2018-07-14T04:03:37.344Z,13.65
2018-07-14T04:06:44.149Z,13.68
2018-07-14T04:09:49.925Z,13.75
2018-07-14T04:12:55.523Z,13.80
2018-07-14T04:16:00.667Z,13.85
2018-07-14T04:19:05.843Z,13.90
2018-07-14T04:22:10.994Z,13.89
2018-07-14T04:25:17.100Z,13.97
2018-07-14T04:28:23.313Z,14.01
2018-07-14T04:31:28.219Z,14.12
2018-07-14T04:34:33.393Z,14.19
2018-07-14T04:37:38.550Z,14.20
2018-07-14T04:40:43.740Z,14.20
2018-07-14T04:43:49.167Z,14.25
2018-07-14T04:46:55.064Z,14.28
2018-07-14T04:50:00.524Z,14.32
2018-07-14T04:53:06.566Z,14.39
2018-07-14T04:56:13.515Z,14.42
2018-07-14T04:59:20.423Z,14.47
2018-07-14T05:02:27.556Z,14.51
2018-07-14T05:05:33.421Z,14.56
2018-07-14T05:08:39.691Z,14.58
2018-07-14T05:11:45.816Z,14.63
2018-07-14T05:14:52.125Z,14.64
2018-07-14T05:17:57.343Z,14.67
2018-07-14T05:21:02.900Z,14.69
2018-07-14T05:24:08.083Z,14.72
2018-07-14T05:27:13.276Z,14.76
2018-07-14T05:30:18.556Z,14.79
2018-07-14T05:33:25.688Z,14.82
2018-07-14T05:36:31.776Z,14.87
2018-07-14T05:39:37.615Z,14.91
2018-07-14T05:42:44.587Z,14.92
2018-07-14T05:45:51.407Z,14.97
2018-07-14T05:48:57.423Z,15.00
2018-07-14T05:52:03.635Z,15.04
2018-07-14T05:55:09.260Z,15.07
2018-07-14T05:58:15.383Z,15.13
2018-07-14T06:01:22.423Z,15.15
2018-07-14T06:04:29.124Z,15.19
2018-07-14T06:07:36.018Z,15.23
2018-07-14T06:10:42.048Z,15.26
2018-07-14T06:13:47.113Z,15.30
2018-07-14T06:16:52.784Z,15.34
2018-07-14T06:19:58.209Z,15.38
2018-07-14T06:23:03.429Z,15.43
2018-07-14T06:26:09.278Z,15.48
2018-07-14T06:29:14.188Z,15.53
2018-07-14T06:32:20.791Z,15.58
2018-07-14T06:35:27.019Z,15.64
2018-07-14T06:38:32.758Z,15.69
2018-07-14T06:41:39.992Z,15.75
2018-07-14T06:44:45.863Z,15.80
2018-07-14T06:47:52.048Z,15.85
2018-07-14T06:50:58.166Z,15.92
2018-07-14T06:54:04.053Z,15.97
2018-07-14T06:57:09.943Z,16.04
2018-07-14T07:00:16.107Z,16.10
2018-07-14T07:03:22.084Z,16.15
2018-07-14T07:06:27.940Z,16.22
2018-07-14T07:09:34.778Z,16.26
2018-07-14T07:12:40.958Z,16.33
2018-07-14T07:15:46.709Z,16.39
2018-07-14T07:18:53.695Z,16.45
2018-07-14T07:21:59.637Z,16.50
2018-07-14T07:25:06.525Z,16.55
2018-07-14T07:28:12.858Z,16.59
2018-07-14T07:31:19.486Z,16.62
2018-07-14T07:34:26.690Z,16.66
2018-07-14T07:37:33.529Z,16.67
2018-07-14T07:40:40.683Z,16.69
2018-07-14T07:43:47.544Z,16.72
2018-07-14T07:46:53.612Z,16.76
2018-07-14T07:50:00.879Z,16.77
2018-07-14T07:53:06.495Z,16.80
2018-07-14T07:56:13.608Z,16.82
2018-07-14T07:59:19.728Z,16.86
2018-07-14T08:02:25.874Z,16.86
2018-07-14T08:05:31.410Z,16.89
2018-07-14T08:08:37.292Z,16.90
2018-07-14T08:11:42.687Z,16.93
2018-07-14T08:14:49.584Z,16.96
2018-07-14T08:17:55.420Z,16.99
2018-07-14T08:21:01.477Z,17.00
2018-07-14T08:24:07.535Z,17.03
2018-07-14T08:27:13.222Z,17.07
2018-07-14T08:30:20.351Z,17.11
2018-07-14T08:33:26.152Z,17.16
2018-07-14T08:36:32.027Z,17.21
2018-07-14T08:39:39.142Z,17.25
2018-07-14T08:42:45.066Z,17.29
2018-07-14T08:45:51.077Z,17.35
2018-07-14T08:48:57.001Z,17.40
2018-07-14T08:52:02.960Z,17.44
2018-07-14T08:55:08.880Z,17.51
2018-07-14T08:58:14.835Z,17.55
2018-07-14T09:01:20.759Z,17.61
2018-07-14T09:04:26.849Z,17.66
2018-07-14T09:07:32.764Z,17.72
2018-07-14T09:10:38.582Z,17.75
2018-07-14T09:13:45.706Z,17.79
2018-07-14T09:16:51.420Z,17.81
2018-07-14T09:19:56.641Z,17.83
2018-07-14T09:23:02.992Z,17.84
2018-07-14T09:26:08.806Z,17.85
2018-07-14T09:29:14.844Z,17.86
2018-07-14T09:32:21.558Z,17.87
2018-07-14T09:35:28.464Z,17.84
2018-07-14T09:38:34.436Z,17.86
2018-07-14T09:41:40.660Z,17.85
2018-07-14T09:44:47.406Z,17.89
2018-07-14T09:47:53.766Z,17.88
2018-07-14T09:50:59.410Z,17.91
2018-07-14T09:54:06.553Z,17.92
2018-07-14T09:57:13.393Z,17.95
2018-07-14T10:00:25.679Z,17.98
2018-07-14T10:03:32.368Z,18.00
2018-07-14T10:06:38.599Z,18.05
2018-07-14T10:09:46.000Z,18.07
2018-07-14T10:12:51.179Z,18.12
2018-07-14T10:15:57.897Z,18.15
2018-07-14T10:19:03.305Z,18.20
2018-07-14T10:22:09.634Z,18.26
2018-07-14T10:25:17.100Z,18.30
2018-07-14T10:28:22.819Z,18.35
2018-07-14T10:31:29.303Z,18.39
2018-07-14T10:34:35.876Z,18.44
2018-07-14T10:37:41.763Z,18.51
2018-07-14T10:40:47.688Z,18.54
2018-07-14T10:43:54.669Z,18.57
2018-07-14T10:47:01.709Z,18.62
2018-07-14T10:50:07.600Z,18.64
2018-07-14T10:53:13.939Z,18.67
2018-07-14T10:56:19.631Z,18.71
2018-07-14T10:59:26.723Z,18.74
2018-07-14T11:02:32.563Z,18.77
2018-07-14T11:05:38.533Z,18.82
2018-07-14T11:08:44.351Z,18.84
2018-07-14T11:11:50.488Z,18.88
2018-07-14T11:14:57.459Z,18.91
2018-07-14T11:18:03.572Z,18.92
2018-07-14T11:21:08.880Z,18.96
2018-07-14T11:24:14.075Z,19.00
2018-07-14T11:27:21.445Z,19.03
2018-07-14T11:30:27.260Z,19.07
2018-07-14T11:33:33.536Z,19.12
2018-07-14T11:36:38.716Z,19.16
2018-07-14T11:39:43.903Z,19.22
2018-07-14T11:42:50.048Z,19.26
2018-07-14T11:45:55.924Z,19.31
2018-07-14T11:49:02.977Z,19.35
2018-07-14T11:52:08.776Z,19.37
2018-07-14T11:55:14.819Z,19.41
2018-07-14T11:58:20.818Z,19.43
2018-07-14T12:01:26.134Z,19.44
2018-07-14T12:04:32.650Z,19.47
2018-07-14T12:07:39.600Z,19.48
2018-07-14T12:10:46.032Z,19.48
2018-07-14T12:13:51.220Z,19.49
2018-07-14T12:16:57.771Z,19.49
2018-07-14T12:20:04.159Z,19.50
2018-07-14T12:23:09.372Z,19.49
2018-07-14T12:26:16.413Z,19.47
2018-07-14T12:29:22.419Z,19.48
2018-07-14T12:32:28.389Z,19.51
2018-07-14T12:35:34.447Z,19.52
2018-07-14T12:38:40.633Z,19.53
2018-07-14T12:41:46.162Z,19.55
2018-07-14T12:44:51.336Z,19.56
2018-07-14T12:47:57.719Z,19.57
2018-07-14T12:51:03.536Z,19.57
2018-07-14T12:54:09.673Z,19.59
2018-07-14T12:57:15.807Z,19.60
2018-07-14T13:00:21.494Z,19.61
2018-07-14T13:03:27.536Z,19.63
2018-07-14T13:06:33.772Z,19.62
2018-07-14T13:09:40.253Z,19.64
2018-07-14T13:12:46.158Z,19.63
2018-07-14T13:15:52.492Z,19.65
2018-07-14T13:18:58.245Z,19.65
2018-07-14T13:22:04.299Z,19.67
2018-07-14T13:25:10.126Z,19.68
2018-07-14T13:28:15.981Z,19.71
2018-07-14T13:31:21.956Z,19.72
2018-07-14T13:34:27.941Z,19.77
2018-07-14T13:37:34.711Z,19.82
2018-07-14T13:40:40.763Z,19.85
2018-07-14T13:43:45.968Z,19.90
2018-07-14T13:46:52.239Z,19.95
2018-07-14T13:49:57.967Z,19.96
2018-07-14T13:53:04.116Z,19.97
2018-07-14T13:56:09.868Z,19.98
2018-07-14T13:59:16.217Z,20.00
2018-07-14T14:02:21.825Z,20.00
2018-07-14T14:05:28.816Z,19.97
2018-07-14T14:08:34.872Z,19.98
2018-07-14T14:11:40.587Z,19.96
2018-07-14T14:14:45.780Z,19.96
2018-07-14T14:17:52.432Z,19.97
2018-07-14T14:20:58.280Z,20.00
2018-07-14T14:24:04.202Z,20.01
2018-07-14T14:27:11.243Z,20.02
2018-07-14T14:30:17.267Z,20.05
2018-07-14T14:33:24.040Z,20.08
2018-07-14T14:36:29.878Z,20.11
2018-07-14T14:39:35.812Z,20.15
2018-07-14T14:42:42.810Z,20.17
2018-07-14T14:45:48.629Z,20.17
2018-07-14T14:48:55.599Z,20.20
2018-07-14T14:52:02.565Z,20.20
2018-07-14T14:55:08.315Z,20.22
2018-07-14T14:58:15.451Z,20.26
2018-07-14T15:01:21.403Z,20.29
2018-07-14T15:04:27.219Z,20.30
2018-07-14T15:07:33.136Z,20.31
2018-07-14T15:10:40.414Z,20.32
2018-07-14T15:13:45.641Z,20.33
2018-07-14T15:16:51.160Z,20.30
2018-07-14T15:19:57.080Z,20.30
2018-07-14T15:23:04.166Z,20.31
2018-07-14T15:26:09.899Z,20.31
2018-07-14T15:29:15.975Z,20.30
2018-07-14T15:32:22.317Z,20.29
2018-07-14T15:35:27.745Z,20.28
2018-07-14T15:38:33.251Z,20.26
2018-07-14T15:41:39.786Z,20.25
2018-07-14T15:44:45.818Z,20.26
2018-07-14T15:47:53.143Z,20.24
2018-07-14T15:50:59.284Z,20.22
2018-07-14T15:54:05.652Z,20.23
2018-07-14T15:57:11.887Z,20.21
2018-07-14T16:00:17.355Z,20.22
2018-07-14T16:03:23.356Z,20.21
2018-07-14T16:06:30.313Z,20.21
2018-07-14T16:09:36.589Z,20.20
2018-07-14T16:12:42.667Z,20.18
2018-07-14T16:15:48.540Z,20.17
2018-07-14T16:18:55.266Z,20.16
2018-07-14T16:22:02.384Z,20.14
2018-07-14T16:25:09.560Z,20.14
2018-07-14T16:28:14.761Z,20.11
2018-07-14T16:31:20.143Z,20.10
2018-07-14T16:34:26.264Z,20.10
2018-07-14T16:37:32.044Z,20.08
2018-07-14T16:40:38.309Z,20.05
2018-07-14T16:43:45.134Z,20.03
2018-07-14T16:46:50.782Z,20.00
2018-07-14T16:49:56.975Z,19.99
2018-07-14T16:53:02.939Z,19.96
2018-07-14T16:56:09.062Z,19.92
2018-07-14T16:59:14.291Z,19.89
2018-07-14T17:02:19.476Z,19.87
2018-07-14T17:05:25.351Z,19.85
2018-07-14T17:08:32.489Z,19.81
2018-07-14T17:11:38.579Z,19.79
2018-07-14T17:14:46.076Z,19.77
2018-07-14T17:17:51.278Z,19.73
2018-07-14T17:20:57.452Z,19.70
2018-07-14T17:24:03.593Z,19.67
2018-07-14T17:27:09.346Z,19.64
2018-07-14T17:30:15.477Z,19.61
2018-07-14T17:33:21.672Z,19.57
2018-07-14T17:36:27.496Z,19.55
2018-07-14T17:39:32.743Z,19.53
2018-07-14T17:42:37.888Z,19.50
2018-07-14T17:45:44.226Z,19.48
2018-07-14T17:48:49.832Z,19.47
2018-07-14T17:51:56.778Z,19.45
2018-07-14T17:55:03.848Z,19.41
2018-07-14T17:58:10.732Z,19.37
2018-07-14T18:01:16.554Z,19.35
2018-07-14T18:04:22.563Z,19.31
2018-07-14T18:07:28.271Z,19.27
2018-07-14T18:10:34.471Z,19.25
2018-07-14T18:13:40.376Z,19.22
2018-07-14T18:16:45.982Z,19.21
2018-07-14T18:19:52.729Z,19.18
2018-07-14T18:22:59.577Z,19.16
2018-07-14T18:26:06.098Z,19.14
2018-07-14T18:29:11.502Z,19.11
2018-07-14T18:32:17.739Z,19.08
2018-07-14T18:35:23.508Z,19.06
2018-07-14T18:38:29.565Z,19.04
2018-07-14T18:41:35.579Z,19.01
2018-07-14T18:44:41.476Z,19.00
2018-07-14T18:47:47.352Z,18.96
2018-07-14T18:50:53.344Z,18.93
2018-07-14T18:53:58.707Z,18.90
2018-07-14T18:57:04.765Z,18.87
2018-07-14T19:00:10.727Z,18.84
2018-07-14T19:03:15.927Z,18.81
2018-07-14T19:06:22.144Z,18.77
2018-07-14T19:09:28.409Z,18.75
2018-07-14T19:12:34.530Z,18.73
2018-07-14T19:15:40.424Z,18.70
2018-07-14T19:18:45.321Z,18.67
2018-07-14T19:21:51.096Z,18.65
2018-07-14T19:24:56.949Z,18.62
2018-07-14T19:28:02.907Z,18.59
2018-07-14T19:31:08.740Z,18.57
2018-07-14T19:34:14.669Z,18.54
2018-07-14T19:37:20.684Z,18.51
2018-07-14T19:40:26.557Z,18.49
2018-07-14T19:43:32.992Z,18.46
2018-07-14T19:46:38.540Z,18.43
2018-07-14T19:49:44.428Z,18.41
2018-07-14T19:52:51.276Z,18.38
2018-07-14T19:55:57.236Z,18.34
2018-07-14T19:59:03.103Z,18.32
2018-07-14T20:02:09.759Z,18.29
2018-07-14T20:05:16.822Z,18.22
2018-07-14T20:08:22.688Z,18.19
2018-07-14T20:11:29.701Z,18.15
2018-07-14T20:14:36.179Z,18.10
2018-07-14T20:17:41.635Z,18.06
2018-07-14T20:20:46.847Z,18.02
2018-07-14T20:23:53.478Z,17.95
2018-07-14T20:27:00.166Z,17.89
2018-07-14T20:30:06.390Z,17.85
2018-07-14T20:33:11.767Z,17.79
2018-07-14T20:36:17.868Z,17.75
2018-07-14T20:39:23.819Z,17.68
2018-07-14T20:42:29.462Z,17.61
2018-07-14T20:45:35.372Z,17.55
2018-07-14T20:48:40.263Z,17.49
2018-07-14T20:51:45.147Z,17.42
2018-07-14T20:54:51.214Z,17.32
2018-07-14T20:57:57.326Z,17.28
2018-07-14T21:01:03.029Z,17.19
2018-07-14T21:04:09.406Z,17.11
2018-07-14T21:07:14.803Z,17.03
2018-07-14T21:10:20.712Z,16.98
2018-07-14T21:13:27.772Z,16.91
2018-07-14T21:16:35.392Z,16.83
2018-07-14T21:19:40.565Z,16.75
2018-07-14T21:22:47.083Z,16.65
2018-07-14T21:25:52.585Z,16.56
2018-07-14T21:28:59.452Z,16.47
2018-07-14T21:32:04.609Z,16.37
2018-07-14T21:35:10.454Z,16.32
2018-07-14T21:38:15.723Z,16.23
2018-07-14T21:41:20.603Z,16.14
2018-07-14T21:44:26.296Z,16.10
2018-07-14T21:47:31.683Z,16.01
2018-07-14T21:50:36.921Z,15.93
2018-07-14T21:53:42.319Z,15.89
2018-07-14T21:56:48.443Z,15.77
2018-07-14T21:59:54.690Z,15.70
2018-07-14T22:03:01.345Z,15.62
2018-07-14T22:06:08.034Z,15.58
2018-07-14T22:09:13.824Z,15.52
2018-07-14T22:12:19.940Z,15.42
2018-07-14T22:15:25.785Z,15.38
2018-07-14T22:18:31.599Z,15.32
2018-07-14T22:21:36.786Z,15.28
2018-07-14T22:24:42.495Z,15.18
2018-07-14T22:27:47.667Z,15.16
2018-07-14T22:30:52.870Z,15.12
2018-07-14T22:33:58.088Z,15.03
2018-07-14T22:37:05.547Z,14.95
2018-07-14T22:40:10.737Z,14.88
2018-07-14T22:43:15.911Z,14.83
2018-07-14T22:46:22.005Z,14.75
2018-07-14T22:49:28.898Z,14.70
2018-07-14T22:52:35.974Z,14.64
2018-07-14T22:55:42.263Z,14.57
2018-07-14T22:58:48.351Z,14.53
2018-07-14T23:01:55.012Z,14.44
2018-07-14T23:05:01.985Z,14.41
2018-07-14T23:08:08.772Z,14.37
2018-07-14T23:11:14.492Z,14.29
2018-07-14T23:14:20.999Z,14.23
2018-07-14T23:17:28.063Z,14.21
2018-07-14T23:20:33.945Z,14.17
2018-07-14T23:23:39.963Z,14.11
2018-07-14T23:26:46.383Z,14.05
2018-07-14T23:29:51.636Z,14.02
2018-07-14T23:32:58.492Z,13.96
2018-07-14T23:36:04.892Z,13.89
2018-07-14T23:39:10.673Z,13.83
2018-07-14T23:42:16.572Z,13.76
2018-07-14T23:45:22.705Z,13.75
2018-07-14T23:48:28.081Z,13.69
2018-07-14T23:51:33.255Z,13.65
2018-07-14T23:54:40.376Z,13.61
2018-07-14T23:57:46.136Z,13.59
